createdAt,value
2023-11-28T00:02:58.217Z,2.69
2023-11-28T00:06:00.974Z,2.69
2023-11-28T00:09:03.961Z,2.69
2023-11-28T00:12:08.713Z,2.72
2023-11-28T00:15:11.946Z,2.73
2023-11-28T00:18:14.703Z,2.71
2023-11-28T00:21:17.456Z,2.68
2023-11-28T00:24:20.056Z,2.67
2023-11-28T00:27:23.969Z,2.66
2023-11-28T00:30:26.618Z,2.66
2023-11-28T00:33:29.280Z,2.64
2023-11-28T00:36:31.950Z,2.62
2023-11-28T00:39:34.830Z,2.61
2023-11-28T00:42:38.807Z,2.59
2023-11-28T00:45:41.446Z,2.55
2023-11-28T00:48:44.321Z,2.44
2023-11-28T00:51:46.959Z,2.52
2023-11-28T00:54:49.617Z,2.49
2023-11-28T00:57:54.539Z,2.47
2023-11-28T01:00:57.210Z,2.46
2023-11-28T01:03:59.895Z,2.43
2023-11-28T01:07:02.958Z,2.43
2023-11-28T01:10:06.416Z,2.43
2023-11-28T01:13:10.370Z,2.41
2023-11-28T01:16:13.430Z,2.45
2023-11-28T01:19:16.064Z,2.37
2023-11-28T01:22:18.706Z,2.44
2023-11-28T01:25:21.332Z,2.44
2023-11-28T01:28:25.401Z,2.41
2023-11-28T01:31:29.270Z,2.44
2023-11-28T01:34:32.110Z,2.45
2023-11-28T01:37:34.730Z,2.37
2023-11-28T01:40:37.330Z,2.33
2023-11-28T01:43:41.293Z,2.32
2023-11-28T01:46:44.099Z,2.18
2023-11-28T01:49:46.734Z,2.30
2023-11-28T01:52:49.767Z,2.29
2023-11-28T01:55:52.548Z,2.33
2023-11-28T01:58:56.511Z,2.28
2023-11-28T02:01:59.321Z,2.25
2023-11-28T02:05:02.108Z,2.34
2023-11-28T02:08:05.291Z,2.32
2023-11-28T02:11:08.055Z,2.34
2023-11-28T02:14:12.599Z,2.33
2023-11-28T02:17:16.351Z,2.27
2023-11-28T02:20:18.982Z,2.22
2023-11-28T02:23:21.714Z,2.20
2023-11-28T02:26:26.201Z,2.18
2023-11-28T02:29:28.790Z,2.16
2023-11-28T02:32:31.431Z,2.12
2023-11-28T02:35:34.147Z,2.07
2023-11-28T02:38:36.845Z,2.00
2023-11-28T02:41:40.837Z,2.00
2023-11-28T02:44:44.259Z,2.00
2023-11-28T02:47:46.896Z,1.98
2023-11-28T02:50:49.506Z,1.98
2023-11-28T02:53:52.098Z,1.97
2023-11-28T02:56:56.086Z,1.92
2023-11-28T02:59:58.670Z,1.98
2023-11-28T03:03:01.485Z,1.94
2023-11-28T03:06:04.469Z,1.92
2023-11-28T03:09:07.131Z,1.90
2023-11-28T03:12:11.130Z,1.83
2023-11-28T03:15:13.723Z,1.77
2023-11-28T03:18:16.330Z,1.69
2023-11-28T03:21:18.913Z,1.64
2023-11-28T03:24:21.591Z,1.54
2023-11-28T03:27:25.597Z,1.54
2023-11-28T03:30:28.259Z,1.50
2023-11-28T03:33:31.044Z,1.51
2023-11-28T03:36:33.622Z,1.48
2023-11-28T03:39:36.213Z,1.43
2023-11-28T03:42:40.190Z,1.39
2023-11-28T03:45:42.799Z,1.32
2023-11-28T03:48:45.421Z,1.31
2023-11-28T03:51:48.100Z,1.28
2023-11-28T03:54:50.760Z,1.28
2023-11-28T03:57:54.754Z,1.21
2023-11-28T04:00:57.350Z,1.23
2023-11-28T04:03:59.992Z,1.22
2023-11-28T04:07:02.639Z,1.19
2023-11-28T04:10:05.832Z,1.16
2023-11-28T04:13:09.825Z,1.14
2023-11-28T04:16:17.533Z,1.09
2023-11-28T04:19:20.352Z,1.08
2023-11-28T04:22:23.010Z,1.05
2023-11-28T04:25:25.604Z,1.04
2023-11-28T04:28:29.848Z,1.03
2023-11-28T04:31:32.521Z,1.00
2023-11-28T04:34:37.700Z,0.97
2023-11-28T04:37:40.385Z,0.91
2023-11-28T04:40:43.079Z,0.94
2023-11-28T04:43:47.136Z,0.94
2023-11-28T04:46:50.649Z,0.94
2023-11-28T04:49:54.520Z,0.90
2023-11-28T04:52:57.146Z,0.93
2023-11-28T04:56:00.556Z,0.94
2023-11-28T04:59:04.988Z,0.96
2023-11-28T05:02:07.733Z,0.96
2023-11-28T05:05:10.490Z,0.94
2023-11-28T05:08:13.742Z,0.93
2023-11-28T05:11:16.375Z,0.93
2023-11-28T05:14:22.077Z,0.91
2023-11-28T05:17:26.047Z,0.95
2023-11-28T05:20:28.706Z,0.95
2023-11-28T05:23:31.286Z,0.94
2023-11-28T05:26:33.865Z,0.98
2023-11-28T05:29:37.806Z,0.98
2023-11-28T05:32:40.459Z,1.01
2023-11-28T05:35:43.119Z,1.02
2023-11-28T05:38:45.692Z,1.02
2023-11-28T05:41:48.280Z,1.00
2023-11-28T05:44:52.261Z,0.96
2023-11-28T05:47:55.075Z,0.95
2023-11-28T05:50:57.855Z,0.96
2023-11-28T05:54:00.502Z,0.93
2023-11-28T05:57:03.632Z,0.94
2023-11-28T06:00:09.432Z,0.97
2023-11-28T06:03:12.086Z,0.99
2023-11-28T06:06:15.018Z,0.97
2023-11-28T06:09:17.603Z,0.96
2023-11-28T06:12:20.176Z,0.96
2023-11-28T06:15:24.155Z,0.96
2023-11-28T06:18:27.457Z,0.94
2023-11-28T06:21:30.037Z,0.94
2023-11-28T06:24:32.683Z,0.92
2023-11-28T06:27:35.305Z,0.86
2023-11-28T06:30:39.339Z,0.87
2023-11-28T06:33:42.306Z,0.90
2023-11-28T06:36:44.972Z,0.87
2023-11-28T06:39:48.576Z,0.87
2023-11-28T06:42:51.236Z,0.86
2023-11-28T06:46:00.128Z,0.84
2023-11-28T06:49:03.750Z,0.81
2023-11-28T06:52:07.319Z,0.81
2023-11-28T06:55:10.900Z,0.78
2023-11-28T06:58:13.504Z,0.74
2023-11-28T07:01:17.503Z,0.75
2023-11-28T07:04:20.156Z,0.73
2023-11-28T07:07:22.771Z,0.71
2023-11-28T07:10:25.373Z,0.69
2023-11-28T07:13:28.007Z,0.68
2023-11-28T07:16:32.434Z,0.67
2023-11-28T07:19:35.168Z,0.67
2023-11-28T07:22:37.942Z,0.66
2023-11-28T07:25:40.586Z,0.65
2023-11-28T07:28:43.318Z,0.66
2023-11-28T07:31:47.982Z,0.67
2023-11-28T07:34:50.705Z,0.65
2023-11-28T07:37:53.313Z,0.63
2023-11-28T07:40:56.001Z,0.65
2023-11-28T07:43:58.851Z,0.65
2023-11-28T07:47:03.543Z,0.55
2023-11-28T07:50:07.435Z,0.63
2023-11-28T07:53:10.105Z,0.63
2023-11-28T07:56:14.313Z,0.64
2023-11-28T07:59:16.968Z,0.66
2023-11-28T08:02:21.144Z,0.66
2023-11-28T08:05:24.927Z,0.71
2023-11-28T08:08:27.603Z,0.75
2023-11-28T08:11:30.273Z,0.78
2023-11-28T08:14:32.996Z,0.80
2023-11-28T08:17:37.215Z,0.78
2023-11-28T08:20:39.879Z,0.74
2023-11-28T08:23:42.605Z,0.70
2023-11-28T08:26:45.224Z,0.67
2023-11-28T08:29:47.919Z,0.70
2023-11-28T08:32:51.984Z,0.74
2023-11-28T08:35:54.608Z,0.84
2023-11-28T08:38:57.231Z,0.93
2023-11-28T08:42:00.764Z,1.06
2023-11-28T08:45:03.640Z,1.27
2023-11-28T08:48:07.735Z,1.50
2023-11-28T08:51:10.421Z,1.75
2023-11-28T08:54:13.208Z,2.02
2023-11-28T08:57:16.913Z,2.32
2023-11-28T09:00:20.984Z,2.64
2023-11-28T09:03:25.219Z,3.03
2023-11-28T09:06:28.007Z,3.39
2023-11-28T09:09:30.630Z,3.75
2023-11-28T09:12:33.243Z,4.02
2023-11-28T09:15:35.840Z,4.46
2023-11-28T09:18:39.869Z,4.82
2023-11-28T09:21:42.533Z,5.14
2023-11-28T09:24:45.156Z,5.38
2023-11-28T09:27:47.755Z,5.58
2023-11-28T09:30:50.378Z,5.73
2023-11-28T09:33:54.842Z,5.88
2023-11-28T09:36:57.510Z,6.04
2023-11-28T09:40:00.364Z,6.13
2023-11-28T09:43:03.111Z,6.13
2023-11-28T09:46:06.476Z,6.04
2023-11-28T09:49:10.533Z,5.98
2023-11-28T09:52:15.383Z,6.14
2023-11-28T09:55:18.306Z,6.08
2023-11-28T09:58:21.500Z,6.07
2023-11-28T10:01:24.546Z,6.02
2023-11-28T10:04:28.568Z,6.06
2023-11-28T10:07:33.660Z,6.19
2023-11-28T10:10:37.276Z,6.17
2023-11-28T10:13:40.107Z,6.14
2023-11-28T10:16:43.633Z,6.15
2023-11-28T10:19:47.720Z,6.22
2023-11-28T10:22:51.145Z,6.38
2023-11-28T10:25:53.737Z,6.52
2023-11-28T10:28:56.373Z,6.51
2023-11-28T10:31:59.302Z,6.39
2023-11-28T10:35:03.312Z,6.30
2023-11-28T10:38:06.023Z,6.17
2023-11-28T10:41:08.710Z,6.14
2023-11-28T10:44:11.348Z,6.09
2023-11-28T10:47:14.857Z,6.26
2023-11-28T10:50:19.038Z,6.26
2023-11-28T10:53:22.380Z,6.24
2023-11-28T10:56:25.015Z,6.18
2023-11-28T10:59:31.240Z,6.17
2023-11-28T11:02:33.972Z,6.29
2023-11-28T11:05:38.029Z,6.38
2023-11-28T11:08:42.113Z,6.50
2023-11-28T11:11:44.721Z,6.57
2023-11-28T11:14:50.082Z,6.69
2023-11-28T11:17:55.555Z,6.72
2023-11-28T11:21:01.834Z,6.86
2023-11-28T11:24:04.889Z,6.92
2023-11-28T11:27:09.945Z,7.06
2023-11-28T11:30:13.541Z,7.18
2023-11-28T11:33:17.857Z,7.24
2023-11-28T11:36:21.882Z,7.37
2023-11-28T11:39:24.523Z,7.48
2023-11-28T11:42:28.216Z,7.45
2023-11-28T11:45:30.818Z,7.53
2023-11-28T11:48:34.983Z,7.52
2023-11-28T11:51:39.012Z,7.50
2023-11-28T11:54:41.871Z,7.47
2023-11-28T11:57:44.991Z,7.49
2023-11-28T12:00:48.369Z,7.47
2023-11-28T12:03:51.104Z,7.51
2023-11-28T12:07:04.487Z,7.63
2023-11-28T12:10:07.794Z,7.59
2023-11-28T12:13:11.363Z,7.59
2023-11-28T12:16:14.082Z,7.51
2023-11-28T12:19:17.129Z,7.20
2023-11-28T12:22:21.162Z,7.37
2023-11-28T12:25:25.036Z,7.41
2023-11-28T12:28:27.915Z,7.49
2023-11-28T12:31:30.760Z,7.47
2023-11-28T12:34:34.564Z,7.46
2023-11-28T12:37:39.838Z,7.22
2023-11-28T12:40:42.497Z,7.24
2023-11-28T12:43:45.351Z,7.18
2023-11-28T12:46:49.318Z,7.15
2023-11-28T12:49:52.590Z,7.12
2023-11-28T12:52:56.895Z,7.11
2023-11-28T12:55:59.578Z,7.13
2023-11-28T12:59:03.371Z,7.12
2023-11-28T13:02:06.181Z,7.25
2023-11-28T13:05:09.249Z,7.33
2023-11-28T13:08:13.396Z,7.30
2023-11-28T13:11:17.714Z,7.28
2023-11-28T13:14:20.538Z,7.31
2023-11-28T13:17:23.568Z,7.33
2023-11-28T13:20:26.311Z,7.35
2023-11-28T13:23:30.805Z,7.42
2023-11-28T13:26:33.470Z,7.53
2023-11-28T13:29:39.330Z,7.59
2023-11-28T13:32:42.605Z,7.63
2023-11-28T13:35:45.798Z,7.64
2023-11-28T13:38:49.779Z,7.54
2023-11-28T13:41:52.403Z,7.53
2023-11-28T13:44:55.357Z,7.59
2023-11-28T13:47:58.121Z,7.67
2023-11-28T13:51:00.821Z,7.73
2023-11-28T13:54:06.190Z,7.80
2023-11-28T13:57:08.855Z,7.85
2023-11-28T14:00:13.130Z,7.88
2023-11-28T14:03:15.850Z,7.85
2023-11-28T14:06:18.506Z,7.75
2023-11-28T14:09:23.603Z,7.49
2023-11-28T14:12:26.321Z,7.46
2023-11-28T14:15:28.902Z,7.33
2023-11-28T14:18:31.700Z,7.26
2023-11-28T14:21:35.615Z,7.15
2023-11-28T14:24:39.559Z,7.01
2023-11-28T14:27:42.578Z,6.90
2023-11-28T14:30:45.254Z,6.81
2023-11-28T14:33:47.912Z,6.72
2023-11-28T14:36:50.580Z,6.63
2023-11-28T14:39:54.532Z,6.58
2023-11-28T14:42:57.182Z,6.46
2023-11-28T14:45:59.872Z,6.31
2023-11-28T14:49:05.066Z,6.29
2023-11-28T14:52:07.966Z,6.25
2023-11-28T14:55:11.920Z,6.18
2023-11-28T14:58:14.511Z,6.18
2023-11-28T15:01:17.123Z,6.19
2023-11-28T15:04:19.902Z,6.11
2023-11-28T15:07:23.758Z,5.92
2023-11-28T15:10:27.829Z,5.69
2023-11-28T15:13:30.416Z,5.47
2023-11-28T15:16:33.661Z,5.39
2023-11-28T15:19:40.031Z,5.24
2023-11-28T15:22:42.656Z,5.11
2023-11-28T15:25:49.216Z,5.06
2023-11-28T15:28:52.262Z,4.98
2023-11-28T15:57:13.494Z,3.48
2023-11-28T16:00:58.841Z,3.58
2023-11-28T16:04:01.450Z,3.67
2023-11-28T16:13:01.534Z,3.72
2023-11-28T16:16:04.298Z,3.74
2023-11-28T16:21:05.142Z,3.76
2023-11-28T16:24:10.077Z,3.79
2023-11-28T16:28:51.263Z,3.84
2023-11-28T16:31:53.951Z,3.88
2023-11-28T16:36:15.011Z,3.93
2023-11-28T16:39:56.667Z,3.97
2023-11-28T16:42:59.258Z,3.98
2023-11-28T16:46:03.411Z,3.98
2023-11-28T16:49:06.838Z,3.95
2023-11-28T16:52:10.855Z,3.91
2023-11-28T16:55:17.046Z,3.82
2023-11-28T16:58:22.146Z,3.76
2023-11-28T17:01:24.812Z,3.77
2023-11-28T17:04:28.484Z,3.76
2023-11-28T17:07:31.139Z,3.75
2023-11-28T17:10:36.184Z,3.76
2023-11-28T17:13:38.878Z,3.74
2023-11-28T17:16:41.521Z,3.73
2023-11-28T17:19:44.407Z,3.71
2023-11-28T17:22:47.035Z,3.68
2023-11-28T17:25:51.020Z,3.60
2023-11-28T17:28:53.740Z,3.56
2023-11-28T17:31:58.758Z,3.39
2023-11-28T17:35:01.622Z,3.52
2023-11-28T17:38:06.282Z,3.55
2023-11-28T17:41:17.244Z,3.51
2023-11-28T17:44:20.451Z,3.47
2023-11-28T17:47:26.844Z,3.41
2023-11-28T17:50:29.748Z,3.37
2023-11-28T17:53:33.264Z,3.30
2023-11-28T17:56:37.622Z,3.17
2023-11-28T17:59:41.384Z,3.14
2023-11-28T18:02:44.170Z,3.09
2023-11-28T18:05:46.926Z,3.01
2023-11-28T18:08:49.836Z,2.95
2023-11-28T18:11:53.782Z,2.86
2023-11-28T18:14:56.408Z,2.84
2023-11-28T18:17:59.147Z,2.83
2023-11-28T18:21:11.692Z,2.83
2023-11-28T18:24:21.570Z,2.81
2023-11-28T18:27:25.826Z,2.81
2023-11-28T18:30:28.407Z,2.74
2023-11-28T18:33:31.000Z,2.75
2023-11-28T18:36:33.612Z,2.75
2023-11-28T18:39:38.019Z,2.76
2023-11-28T18:42:43.133Z,2.75
2023-11-28T18:45:45.830Z,2.68
2023-11-28T18:48:48.474Z,2.75
2023-11-28T18:51:51.195Z,2.77
2023-11-28T18:54:54.372Z,2.77
2023-11-28T18:57:58.392Z,2.79
2023-11-28T19:01:01.387Z,2.82
2023-11-28T19:04:04.375Z,2.85
2023-11-28T19:07:07.089Z,2.87
2023-11-28T19:10:10.938Z,2.90
2023-11-28T19:13:16.426Z,2.85
2023-11-28T19:16:25.487Z,2.98
2023-11-28T19:19:29.283Z,3.04
2023-11-28T19:22:32.116Z,3.07
2023-11-28T19:25:35.522Z,3.06
2023-11-28T19:28:42.154Z,3.09
2023-11-28T19:31:48.934Z,3.05
2023-11-28T19:34:52.112Z,3.04
2023-11-28T19:37:54.764Z,3.04
2023-11-28T19:40:57.516Z,3.04
2023-11-28T19:44:01.492Z,2.81
2023-11-28T19:47:05.150Z,3.00
2023-11-28T19:50:08.670Z,2.96
2023-11-28T19:53:11.733Z,2.90
2023-11-28T19:56:14.550Z,2.80
2023-11-28T19:59:18.634Z,2.78
2023-11-28T20:02:21.874Z,2.80
2023-11-28T20:05:25.930Z,2.79
2023-11-28T20:08:28.574Z,2.76
2023-11-28T20:11:31.915Z,2.70
2023-11-28T20:14:35.948Z,2.68
2023-11-28T20:17:38.670Z,2.66
2023-11-28T20:20:41.986Z,2.63
2023-11-28T20:23:44.706Z,2.67
2023-11-28T20:26:47.852Z,2.68
2023-11-28T20:29:51.856Z,2.68
2023-11-28T20:32:54.595Z,2.71
2023-11-28T20:35:57.216Z,2.78
2023-11-28T20:39:03.882Z,2.87
2023-11-28T20:42:06.926Z,2.97
2023-11-28T20:45:11.313Z,3.04
2023-11-28T20:48:14.093Z,3.10
2023-11-28T20:51:17.556Z,3.16
2023-11-28T20:54:21.197Z,3.18
2023-11-28T20:57:23.810Z,3.21
2023-11-28T21:00:27.825Z,3.31
2023-11-28T21:03:30.429Z,3.33
2023-11-28T21:06:33.174Z,3.38
2023-11-28T21:09:35.870Z,3.36
2023-11-28T21:12:39.648Z,3.43
2023-11-28T21:15:44.116Z,3.38
2023-11-28T21:18:46.838Z,3.41
2023-11-28T21:21:49.870Z,3.40
2023-11-28T21:24:52.462Z,3.40
2023-11-28T21:27:55.123Z,3.42
2023-11-28T21:30:59.165Z,3.42
2023-11-28T21:34:02.461Z,3.43
2023-11-28T21:37:05.392Z,3.42
2023-11-28T21:40:08.968Z,3.39
2023-11-28T21:43:12.750Z,3.42
2023-11-28T21:46:18.453Z,3.42
2023-11-28T21:49:21.072Z,3.40
2023-11-28T21:52:23.710Z,3.35
2023-11-28T21:55:28.370Z,3.41
2023-11-28T21:58:31.093Z,3.40
2023-11-28T22:01:35.152Z,3.37
2023-11-28T22:04:37.832Z,3.41
2023-11-28T22:07:40.707Z,3.39
2023-11-28T22:10:43.319Z,3.38
2023-11-28T22:13:46.032Z,3.26
2023-11-28T22:16:49.998Z,3.30
2023-11-28T22:19:52.649Z,3.27
2023-11-28T22:22:56.158Z,3.23
2023-11-28T22:25:58.943Z,3.20
2023-11-28T22:29:01.917Z,3.20
2023-11-28T22:32:06.481Z,3.18
2023-11-28T22:35:10.570Z,3.16
2023-11-28T22:38:13.247Z,3.02
2023-11-28T22:41:16.170Z,3.13
2023-11-28T22:44:19.075Z,3.08
2023-11-28T22:47:23.143Z,3.12
2023-11-28T22:50:29.527Z,3.08
2023-11-28T22:53:32.407Z,3.08
2023-11-28T22:56:35.788Z,3.09
2023-11-28T22:59:51.647Z,3.06
2023-11-28T23:02:55.870Z,3.10
2023-11-28T23:05:59.983Z,3.11
2023-11-28T23:09:02.637Z,3.13
2023-11-28T23:12:05.355Z,3.14
2023-11-28T23:15:09.051Z,3.13
2023-11-28T23:18:13.041Z,3.11
2023-11-28T23:21:15.797Z,3.09
2023-11-28T23:24:18.603Z,3.08
2023-11-28T23:27:21.986Z,3.10
2023-11-28T23:30:25.417Z,3.10
2023-11-28T23:33:30.297Z,3.07
2023-11-28T23:36:33.301Z,3.08
2023-11-28T23:39:35.961Z,3.11
2023-11-28T23:42:44.053Z,3.13
2023-11-28T23:45:52.406Z,3.21
2023-11-28T23:49:04.511Z,3.24
2023-11-28T23:52:07.934Z,3.29
2023-11-28T23:55:10.551Z,3.33
2023-11-28T23:58:13.206Z,3.37
